createdAt,value
2023-08-01T00:00:29.578Z,96.39
2023-08-01T00:02:58.285Z,96.37
2023-08-01T00:05:26.108Z,96.49
2023-08-01T00:07:54.101Z,96.69
2023-08-01T00:10:21.721Z,96.98
2023-08-01T00:12:49.346Z,96.79
2023-08-01T00:15:17.010Z,96.97
2023-08-01T00:17:44.638Z,97.10
2023-08-01T00:20:12.414Z,97.32
2023-08-01T00:22:40.554Z,98.02
2023-08-01T00:25:09.083Z,97.66
2023-08-01T00:27:40.425Z,97.84
2023-08-01T00:30:09.770Z,98.00
2023-08-01T00:32:38.423Z,97.72
2023-08-01T00:35:06.565Z,97.89
2023-08-01T00:37:34.142Z,98.26
2023-08-01T00:40:02.232Z,98.61
2023-08-01T00:42:29.840Z,98.68
2023-08-01T00:44:59.033Z,99.13
2023-08-01T00:47:27.003Z,98.60
2023-08-01T00:49:54.810Z,98.54
2023-08-01T00:52:23.414Z,98.30
2023-08-01T00:54:51.618Z,98.70
2023-08-01T00:57:19.319Z,99.18
2023-08-01T00:59:46.997Z,99.02
2023-08-01T01:02:14.694Z,99.03
2023-08-01T01:04:42.505Z,99.11
2023-08-01T01:07:10.127Z,99.46
2023-08-01T01:09:37.793Z,99.35
2023-08-01T01:12:05.696Z,99.11
2023-08-01T01:14:33.265Z,99.60
2023-08-01T01:17:01.081Z,99.12
2023-08-01T01:19:28.710Z,99.18
2023-08-01T01:21:57.331Z,99.19
2023-08-01T01:24:27.173Z,99.30
2023-08-01T01:26:56.472Z,99.72
2023-08-01T01:29:24.835Z,99.25
2023-08-01T01:31:53.617Z,99.10
2023-08-01T01:34:21.382Z,99.03
2023-08-01T01:36:48.946Z,98.90
2023-08-01T01:39:16.577Z,99.06
2023-08-01T01:41:44.139Z,98.95
2023-08-01T01:44:11.829Z,99.21
2023-08-01T01:46:40.142Z,98.99
2023-08-01T01:49:07.956Z,98.97
2023-08-01T01:51:35.759Z,99.16
2023-08-01T01:54:03.389Z,99.01
2023-08-01T01:56:31.115Z,99.17
2023-08-01T01:58:58.854Z,98.83
2023-08-01T02:01:26.446Z,98.86
2023-08-01T02:03:54.018Z,98.77
2023-08-01T02:06:21.597Z,98.84
2023-08-01T02:08:49.200Z,98.87
2023-08-01T02:11:16.880Z,98.60
2023-08-01T02:13:44.452Z,98.79
2023-08-01T02:16:12.316Z,98.87
2023-08-01T02:18:40.076Z,98.62
2023-08-01T02:21:07.694Z,98.71
2023-08-01T02:23:37.660Z,98.73
2023-08-01T02:26:05.748Z,98.30
2023-08-01T02:28:33.379Z,98.42
2023-08-01T02:31:01.071Z,97.99
2023-08-01T02:33:28.670Z,97.84
2023-08-01T02:35:56.412Z,97.63
2023-08-01T02:38:24.033Z,97.25
2023-08-01T02:40:51.665Z,97.49
2023-08-01T02:43:19.249Z,97.55
2023-08-01T02:45:46.922Z,97.61
2023-08-01T02:48:14.633Z,97.23
2023-08-01T02:50:42.462Z,97.14
2023-08-01T02:53:10.375Z,97.40
2023-08-01T02:55:38.155Z,97.03
2023-08-01T02:58:05.796Z,96.90
2023-08-01T03:00:33.472Z,97.03
2023-08-01T03:03:01.228Z,97.08
2023-08-01T03:05:28.978Z,97.21
2023-08-01T03:07:56.731Z,97.51
2023-08-01T03:12:58.354Z,97.66
2023-08-01T03:15:25.944Z,97.66
2023-08-01T03:17:53.608Z,97.85
2023-08-01T03:20:21.278Z,97.81
2023-08-01T03:22:48.875Z,97.88
2023-08-01T03:25:16.501Z,98.00
2023-08-01T03:27:44.182Z,98.15
2023-08-01T03:30:12.172Z,97.74
2023-08-01T03:32:41.212Z,98.24
2023-08-01T03:35:09.764Z,98.20
2023-08-01T03:37:37.397Z,97.75
2023-08-01T03:40:06.712Z,97.84
2023-08-01T03:42:34.290Z,97.75
2023-08-01T03:45:02.162Z,97.74
2023-08-01T03:47:31.796Z,97.62
2023-08-01T03:49:59.928Z,97.97
2023-08-01T03:52:27.927Z,97.39
2023-08-01T03:54:56.790Z,97.67
2023-08-01T03:57:24.863Z,97.43
2023-08-01T03:59:52.476Z,97.85
2023-08-01T04:02:20.118Z,98.02
2023-08-01T04:04:47.776Z,98.00
2023-08-01T04:07:15.353Z,98.09
2023-08-01T04:09:43.180Z,98.03
2023-08-01T04:12:10.878Z,98.07
2023-08-01T04:14:38.488Z,97.86
2023-08-01T04:17:06.258Z,97.96
2023-08-01T04:19:33.914Z,98.06
2023-08-01T04:22:01.509Z,97.96
2023-08-01T04:24:30.904Z,97.94
2023-08-01T04:26:58.522Z,98.05
2023-08-01T04:29:26.230Z,98.03
2023-08-01T04:31:53.829Z,97.98
2023-08-01T04:34:21.450Z,98.25
2023-08-01T04:36:49.103Z,98.13
2023-08-01T04:39:16.682Z,98.06
2023-08-01T04:41:44.234Z,98.48
2023-08-01T04:44:11.923Z,98.13
2023-08-01T04:46:39.841Z,98.09
2023-08-01T04:49:07.707Z,97.88
2023-08-01T04:51:35.491Z,98.24
2023-08-01T04:54:03.116Z,98.50
2023-08-01T04:56:30.752Z,98.00
2023-08-01T04:58:58.360Z,98.30
2023-08-01T05:01:25.988Z,98.23
2023-08-01T05:03:53.974Z,98.41
2023-08-01T05:06:21.585Z,98.48
2023-08-01T05:08:49.166Z,98.45
2023-08-01T05:11:16.789Z,98.27
2023-08-01T05:13:44.431Z,98.35
2023-08-01T05:16:12.108Z,98.35
2023-08-01T05:18:39.833Z,98.40
2023-08-01T05:21:07.471Z,98.42
2023-08-01T05:23:35.097Z,98.37
2023-08-01T05:26:02.716Z,98.47
2023-08-01T05:28:30.464Z,98.18
2023-08-01T05:30:58.253Z,98.15
2023-08-01T05:33:26.263Z,98.28
2023-08-01T05:35:53.929Z,98.27
2023-08-01T05:38:21.479Z,97.94
2023-08-01T05:40:49.113Z,97.98
2023-08-01T05:43:17.322Z,97.77
2023-08-01T05:45:44.940Z,97.55
2023-08-01T05:48:14.855Z,97.26
2023-08-01T05:50:42.419Z,97.35
2023-08-01T05:53:10.143Z,97.20
2023-08-01T05:55:37.842Z,97.35
2023-08-01T05:58:05.474Z,96.69
2023-08-01T06:00:33.100Z,96.44
2023-08-01T06:03:01.966Z,96.26
2023-08-01T06:05:29.716Z,95.97
2023-08-01T06:07:57.295Z,95.95
2023-08-01T06:10:25.286Z,95.61
2023-08-01T06:12:52.875Z,95.45
2023-08-01T06:15:20.478Z,95.27
2023-08-01T06:17:48.125Z,95.12
2023-08-01T06:20:15.849Z,95.09
2023-08-01T06:22:44.070Z,94.84
2023-08-01T06:25:11.765Z,94.88
2023-08-01T06:27:39.339Z,94.71
2023-08-01T06:30:07.582Z,94.60
2023-08-01T06:32:35.344Z,94.44
2023-08-01T06:35:02.991Z,94.22
2023-08-01T06:37:30.597Z,94.19
2023-08-01T06:40:00.599Z,94.20
2023-08-01T06:42:28.224Z,94.01
2023-08-01T06:44:55.878Z,93.98
2023-08-01T06:47:23.604Z,93.68
2023-08-01T06:49:51.236Z,93.50
2023-08-01T06:52:18.877Z,93.20
2023-08-01T06:54:46.567Z,93.35
2023-08-01T06:57:14.228Z,93.20
2023-08-01T06:59:41.869Z,92.76
2023-08-01T07:02:09.936Z,92.49
2023-08-01T07:04:38.832Z,92.22
2023-08-01T07:07:06.623Z,92.14
2023-08-01T07:09:35.770Z,91.76
2023-08-01T07:12:03.617Z,91.98
2023-08-01T07:14:31.661Z,91.75
2023-08-01T07:16:59.696Z,92.01
2023-08-01T07:19:27.365Z,91.72
2023-08-01T07:21:55.871Z,91.82
2023-08-01T07:24:26.184Z,91.64
2023-08-01T07:26:55.848Z,91.46
2023-08-01T07:29:23.456Z,91.52
2023-08-01T07:31:51.182Z,91.04
2023-08-01T07:34:18.797Z,90.62
2023-08-01T07:36:49.876Z,90.94
2023-08-01T07:39:18.049Z,91.05
2023-08-01T07:41:45.730Z,91.23
2023-08-01T07:44:13.359Z,90.92
2023-08-01T07:46:41.140Z,90.64
2023-08-01T07:49:09.004Z,90.66
2023-08-01T07:51:37.411Z,90.26
2023-08-01T07:54:05.091Z,89.81
2023-08-01T07:56:32.779Z,89.66
2023-08-01T07:59:00.439Z,89.52
2023-08-01T08:01:28.186Z,89.01
2023-08-01T08:03:55.941Z,88.72
2023-08-01T08:06:25.058Z,88.49
2023-08-01T08:08:52.752Z,87.90
2023-08-01T08:11:20.331Z,87.53
2023-08-01T08:13:47.977Z,86.64
2023-08-01T08:16:15.991Z,85.76
2023-08-01T08:18:43.689Z,84.93
2023-08-01T08:21:11.399Z,84.87
2023-08-01T08:23:39.782Z,84.64
2023-08-01T08:26:08.257Z,84.26
2023-08-01T08:28:35.973Z,83.47
2023-08-01T08:31:04.700Z,82.18
2023-08-01T08:33:32.749Z,81.78
2023-08-01T08:36:00.473Z,81.64
2023-08-01T08:38:30.304Z,80.97
2023-08-01T08:41:15.381Z,80.54
2023-08-01T08:43:43.371Z,81.18
2023-08-01T08:46:13.442Z,80.70
2023-08-01T08:48:41.954Z,79.76
2023-08-01T08:51:10.354Z,79.35
2023-08-01T08:53:38.812Z,79.44
2023-08-01T08:56:09.257Z,79.09
2023-08-01T08:58:42.545Z,78.96
2023-08-01T09:01:10.762Z,78.68
2023-08-01T09:03:38.492Z,78.63
2023-08-01T09:06:12.303Z,77.93
2023-08-01T09:08:41.792Z,78.34
2023-08-01T09:11:09.746Z,77.72
2023-08-01T09:13:37.618Z,77.59
2023-08-01T09:16:08.111Z,77.06
2023-08-01T09:18:35.808Z,77.27
2023-08-01T09:21:04.490Z,76.78
2023-08-01T09:23:32.285Z,76.00
2023-08-01T09:26:00.602Z,75.31
2023-08-01T09:28:28.883Z,74.44
2023-08-01T09:30:58.854Z,73.57
2023-08-01T09:33:26.670Z,72.64
2023-08-01T09:35:54.544Z,71.54
2023-08-01T09:38:22.410Z,69.64
2023-08-01T09:40:51.271Z,68.44
2023-08-01T09:43:19.046Z,67.82
2023-08-01T09:45:56.200Z,66.92
2023-08-01T09:48:27.035Z,67.00
2023-08-01T09:51:13.536Z,66.65
2023-08-01T09:53:55.689Z,66.75
2023-08-01T09:56:30.086Z,67.17
2023-08-01T09:59:00.890Z,67.62
2023-08-01T10:01:29.346Z,67.66
2023-08-01T10:03:58.129Z,67.81
2023-08-01T10:06:30.089Z,68.32
2023-08-01T10:08:59.302Z,68.48
2023-08-01T10:11:28.348Z,68.56
2023-08-01T10:13:57.190Z,68.72
2023-08-01T10:16:25.746Z,68.51
2023-08-01T10:18:54.849Z,68.54
2023-08-01T10:21:23.984Z,68.12
2023-08-01T10:23:51.954Z,67.64
2023-08-01T10:26:19.725Z,67.29
2023-08-01T10:28:53.083Z,66.97
2023-08-01T10:31:22.520Z,67.55
2023-08-01T10:33:51.433Z,67.63
2023-08-01T10:36:24.665Z,68.08
2023-08-01T10:38:55.101Z,68.14
2023-08-01T10:41:34.027Z,68.65
2023-08-01T10:44:16.291Z,69.15
2023-08-01T10:46:51.380Z,70.47
2023-08-01T10:49:20.751Z,70.91
2023-08-01T10:51:48.613Z,71.80
2023-08-01T10:54:24.299Z,72.56
2023-08-01T10:56:54.223Z,72.48
2023-08-01T10:59:23.588Z,72.08
2023-08-01T11:01:59.915Z,71.62
2023-08-01T11:04:27.593Z,70.89
2023-08-01T11:06:59.595Z,70.95
2023-08-01T11:09:29.290Z,70.66
2023-08-01T11:12:02.117Z,70.54
2023-08-01T11:14:30.767Z,69.28
2023-08-01T11:17:01.520Z,68.39
2023-08-01T11:19:30.804Z,67.61
2023-08-01T11:21:58.953Z,67.37
2023-08-01T11:24:27.748Z,66.54
2023-08-01T11:26:55.936Z,66.20
2023-08-01T11:29:23.595Z,64.84
2023-08-01T11:31:56.369Z,63.39
2023-08-01T11:34:24.865Z,63.60
2023-08-01T11:36:52.822Z,63.23
2023-08-01T11:39:20.776Z,63.51
2023-08-01T11:41:48.364Z,64.11
2023-08-01T11:44:16.037Z,64.29
2023-08-01T11:46:44.144Z,65.14
2023-08-01T11:49:15.475Z,65.59
2023-08-01T11:51:45.521Z,66.47
2023-08-01T11:54:14.592Z,67.02
2023-08-01T11:56:43.802Z,67.52
2023-08-01T11:59:13.964Z,67.40
2023-08-01T12:01:46.621Z,67.57
2023-08-01T12:04:26.218Z,67.73
2023-08-01T12:06:53.926Z,67.41
2023-08-01T12:09:21.918Z,67.42
2023-08-01T12:11:59.932Z,66.87
2023-08-01T12:14:29.377Z,66.67
2023-08-01T12:16:57.082Z,66.27
2023-08-01T12:19:24.758Z,66.12
2023-08-01T12:21:52.326Z,66.10
2023-08-01T12:24:19.941Z,66.05
2023-08-01T12:26:47.545Z,66.00
2023-08-01T12:29:15.115Z,65.86
2023-08-01T12:31:42.808Z,65.82
2023-08-01T12:34:10.538Z,66.32
2023-08-01T12:36:38.329Z,66.80
2023-08-01T12:39:11.708Z,66.77
2023-08-01T12:41:39.607Z,66.62
2023-08-01T12:44:07.273Z,66.87
2023-08-01T12:46:34.981Z,66.62
2023-08-01T12:49:02.593Z,66.82
2023-08-01T12:51:30.268Z,66.36
2023-08-01T12:53:57.839Z,66.55
2023-08-01T12:56:25.592Z,66.30
2023-08-01T12:58:53.147Z,66.30
2023-08-01T13:01:20.830Z,65.93
2023-08-01T13:03:48.462Z,65.60
2023-08-01T13:06:16.150Z,65.69
2023-08-01T13:08:43.811Z,65.59
2023-08-01T13:11:13.978Z,65.21
2023-08-01T13:13:43.157Z,65.38
2023-08-01T13:16:11.127Z,65.24
2023-08-01T13:18:44.654Z,65.06
2023-08-01T13:21:13.633Z,64.82
2023-08-01T13:23:41.423Z,64.82
2023-08-01T13:26:09.496Z,65.06
2023-08-01T13:28:37.160Z,65.07
2023-08-01T13:31:05.155Z,65.15
2023-08-01T13:33:32.884Z,65.17
2023-08-01T13:36:00.662Z,65.02
2023-08-01T13:38:29.513Z,65.13
2023-08-01T13:41:01.718Z,64.82
2023-08-01T13:43:29.372Z,64.70
2023-08-01T13:45:57.493Z,64.71
2023-08-01T13:48:25.419Z,65.04
2023-08-01T13:50:53.007Z,65.35
2023-08-01T13:53:20.691Z,65.06
2023-08-01T13:55:48.325Z,65.15
2023-08-01T13:58:15.926Z,64.96
2023-08-01T14:00:43.945Z,64.93
2023-08-01T14:03:12.005Z,65.13
2023-08-01T14:05:39.678Z,65.28
2023-08-01T14:08:07.338Z,65.31
2023-08-01T14:10:35.077Z,65.72
2023-08-01T14:13:02.732Z,65.50
2023-08-01T14:15:30.353Z,64.81
2023-08-01T14:17:58.040Z,64.99
2023-08-01T14:20:25.687Z,64.74
2023-08-01T14:22:53.643Z,64.44
2023-08-01T14:25:21.274Z,64.19
2023-08-01T14:27:48.953Z,64.26
2023-08-01T14:30:16.615Z,63.77
2023-08-01T14:32:44.406Z,63.45
2023-08-01T14:35:13.102Z,63.53
2023-08-01T14:37:43.568Z,62.87
2023-08-01T14:40:11.488Z,62.77
2023-08-01T14:42:41.487Z,62.28
2023-08-01T14:45:10.833Z,61.89
2023-08-01T14:47:39.146Z,61.62
2023-08-01T14:50:07.721Z,61.31
2023-08-01T14:52:35.354Z,60.90
2023-08-01T14:55:03.174Z,61.33
2023-08-01T14:57:30.840Z,61.17
2023-08-01T14:59:58.858Z,61.23
2023-08-01T15:02:27.345Z,60.83
2023-08-01T15:04:59.170Z,60.82
2023-08-01T15:07:27.453Z,60.47
2023-08-01T15:09:57.144Z,59.48
2023-08-01T15:12:25.694Z,58.74
2023-08-01T15:14:57.680Z,58.53
2023-08-01T15:17:25.916Z,58.58
2023-08-01T15:19:54.868Z,58.52
2023-08-01T15:22:22.704Z,58.26
2023-08-01T15:24:50.358Z,58.00
2023-08-01T15:27:18.148Z,57.99
2023-08-01T15:29:47.866Z,58.27
2023-08-01T15:32:15.633Z,58.05
2023-08-01T15:34:43.252Z,58.45
2023-08-01T15:37:11.250Z,58.49
2023-08-01T15:39:38.955Z,58.87
2023-08-01T15:42:06.842Z,58.99
2023-08-01T15:44:34.426Z,59.15
2023-08-01T15:47:02.243Z,59.10
2023-08-01T15:49:29.789Z,59.30
2023-08-01T15:51:57.439Z,59.42
2023-08-01T15:54:25.032Z,59.26
2023-08-01T15:56:54.318Z,59.18
2023-08-01T15:59:22.033Z,59.27
2023-08-01T16:01:50.834Z,58.89
2023-08-01T16:04:18.665Z,58.63
2023-08-01T16:06:46.502Z,58.57
2023-08-01T16:09:14.253Z,58.83
2023-08-01T16:11:41.838Z,58.94
2023-08-01T16:14:09.927Z,59.10
2023-08-01T16:16:37.619Z,59.29
2023-08-01T16:19:05.182Z,58.93
2023-08-01T16:21:32.769Z,58.75
2023-08-01T16:24:02.375Z,58.40
2023-08-01T16:26:30.122Z,58.63
2023-08-01T16:28:57.729Z,59.07
2023-08-01T16:31:25.810Z,59.16
2023-08-01T16:33:53.440Z,59.18
2023-08-01T16:36:21.050Z,59.31
2023-08-01T16:38:48.654Z,59.02
2023-08-01T16:41:22.500Z,59.12
2023-08-01T16:43:50.343Z,59.50
2023-08-01T16:46:18.031Z,59.78
2023-08-01T16:48:45.747Z,60.02
2023-08-01T16:51:13.681Z,60.14
2023-08-01T16:53:41.357Z,60.11
2023-08-01T16:56:08.925Z,60.42
2023-08-01T16:58:36.565Z,60.55
2023-08-01T17:01:04.491Z,60.81
2023-08-01T17:03:32.482Z,61.03
2023-08-01T17:06:00.361Z,61.55
2023-08-01T17:08:28.067Z,61.63
2023-08-01T17:10:55.918Z,61.78
2023-08-01T17:13:24.314Z,62.17
2023-08-01T17:15:52.020Z,62.15
2023-08-01T17:18:21.803Z,62.38
2023-08-01T17:20:49.579Z,62.77
2023-08-01T17:23:17.216Z,62.95
2023-08-01T17:25:45.208Z,63.37
2023-08-01T17:28:12.896Z,63.26
2023-08-01T17:30:40.720Z,63.93
2023-08-01T17:33:10.268Z,64.04
2023-08-01T17:35:38.716Z,64.48
2023-08-01T17:38:06.311Z,64.76
2023-08-01T17:40:33.981Z,64.65
2023-08-01T17:43:02.324Z,65.18
2023-08-01T17:45:30.863Z,65.30
2023-08-01T17:47:59.085Z,65.68
2023-08-01T17:50:27.026Z,65.77
2023-08-01T17:52:54.704Z,65.99
2023-08-01T17:55:22.366Z,66.30
2023-08-01T17:57:50.529Z,66.62
2023-08-01T18:00:19.228Z,67.43
2023-08-01T18:02:47.034Z,67.85
2023-08-01T18:05:15.900Z,67.75
2023-08-01T18:07:44.992Z,68.23
2023-08-01T18:10:16.344Z,68.50
2023-08-01T18:12:48.047Z,68.72
2023-08-01T18:15:15.790Z,69.54
2023-08-01T18:17:43.409Z,69.66
2023-08-01T18:20:11.669Z,70.52
2023-08-01T18:22:39.309Z,71.31
2023-08-01T18:25:07.625Z,72.25
2023-08-01T18:27:35.203Z,72.72
2023-08-01T18:30:02.984Z,73.38
2023-08-01T18:32:30.584Z,74.06
2023-08-01T18:35:00.300Z,74.49
2023-08-01T18:37:28.553Z,74.93
2023-08-01T18:39:56.652Z,75.06
2023-08-01T18:42:25.353Z,75.49
2023-08-01T18:44:53.619Z,75.47
2023-08-01T18:47:21.336Z,75.64
2023-08-01T18:49:51.693Z,75.67
2023-08-01T18:52:19.452Z,76.14
2023-08-01T18:54:53.161Z,76.10
2023-08-01T18:57:20.854Z,76.21
2023-08-01T18:59:48.492Z,76.20
2023-08-01T19:02:16.225Z,76.28
2023-08-01T19:04:45.644Z,76.14
2023-08-01T19:07:13.405Z,75.89
2023-08-01T19:09:41.133Z,75.01
2023-08-01T19:12:09.190Z,75.14
2023-08-01T19:14:37.127Z,74.95
2023-08-01T19:17:05.103Z,75.22
2023-08-01T19:19:32.853Z,75.46
2023-08-01T19:22:00.485Z,75.42
2023-08-01T19:24:28.254Z,76.14
2023-08-01T19:26:57.069Z,76.65
2023-08-01T19:29:26.694Z,77.65
2023-08-01T19:31:54.752Z,78.26
2023-08-01T19:34:22.641Z,78.57
2023-08-01T19:36:51.953Z,78.97
2023-08-01T19:39:20.461Z,79.68
2023-08-01T19:41:48.081Z,80.30
2023-08-01T19:44:16.300Z,80.79
2023-08-01T19:46:44.299Z,81.40
2023-08-01T19:49:12.573Z,81.56
2023-08-01T19:51:41.069Z,82.01
2023-08-01T19:54:08.768Z,82.44
2023-08-01T19:56:36.623Z,82.43
2023-08-01T19:59:04.382Z,82.66
2023-08-01T20:01:32.221Z,82.94
2023-08-01T20:04:01.516Z,82.98
2023-08-01T20:06:30.100Z,83.40
2023-08-01T20:08:57.706Z,83.64
2023-08-01T20:11:25.454Z,84.10
2023-08-01T20:13:53.097Z,84.34
2023-08-01T20:16:21.197Z,84.78
2023-08-01T20:18:48.826Z,85.16
2023-08-01T20:21:16.462Z,85.61
2023-08-01T20:23:44.060Z,85.94
2023-08-01T20:26:11.767Z,86.19
2023-08-01T20:28:39.452Z,86.34
2023-08-01T20:31:07.305Z,86.59
2023-08-01T20:33:35.676Z,86.76
2023-08-01T20:36:03.530Z,86.96
2023-08-01T20:38:31.155Z,87.01
2023-08-01T20:40:58.825Z,87.18
2023-08-01T20:43:27.675Z,87.50
2023-08-01T20:45:57.107Z,87.72
2023-08-01T20:48:25.154Z,87.94
2023-08-01T20:50:52.850Z,88.31
2023-08-01T20:53:20.610Z,88.98
2023-08-01T20:55:48.295Z,89.23
2023-08-01T20:58:18.870Z,89.35
2023-08-01T21:00:47.199Z,89.61
2023-08-01T21:03:15.065Z,89.75
2023-08-01T21:05:42.719Z,90.06
2023-08-01T21:08:10.287Z,90.38
2023-08-01T21:10:37.957Z,90.89
2023-08-01T21:13:05.949Z,91.32
2023-08-01T21:15:33.596Z,91.65
2023-08-01T21:18:01.489Z,91.58
2023-08-01T21:20:29.227Z,91.87
2023-08-01T21:22:56.808Z,92.27
2023-08-01T21:25:24.489Z,92.54
2023-08-01T21:27:52.648Z,92.37
2023-08-01T21:30:20.240Z,92.60
2023-08-01T21:32:48.197Z,92.82
2023-08-01T21:35:17.592Z,92.95
2023-08-01T21:37:45.279Z,92.91
2023-08-01T21:40:13.015Z,93.13
2023-08-01T21:42:40.575Z,93.49
2023-08-01T21:45:09.085Z,93.28
2023-08-01T21:47:36.764Z,93.71
2023-08-01T21:50:04.711Z,93.80
2023-08-01T21:52:32.454Z,93.88
2023-08-01T21:55:00.137Z,93.80
2023-08-01T21:57:27.745Z,94.09
2023-08-01T21:59:56.449Z,93.80
2023-08-01T22:02:24.254Z,94.02
2023-08-01T22:04:51.970Z,94.25
2023-08-01T22:07:19.582Z,94.51
2023-08-01T22:09:47.375Z,94.58
2023-08-01T22:12:14.993Z,94.72
2023-08-01T22:14:42.604Z,94.52
2023-08-01T22:17:10.316Z,94.90
2023-08-01T22:19:37.992Z,94.96
2023-08-01T22:22:05.888Z,94.89
2023-08-01T22:24:34.138Z,94.87
2023-08-01T22:27:01.719Z,94.96
2023-08-01T22:29:29.653Z,94.99
2023-08-01T22:31:57.446Z,95.25
2023-08-01T22:34:26.172Z,95.25
2023-08-01T22:36:53.786Z,95.13
2023-08-01T22:39:21.404Z,95.19
2023-08-01T22:41:49.011Z,95.34
2023-08-01T22:44:16.585Z,94.72
2023-08-01T22:46:44.645Z,95.20
2023-08-01T22:49:12.670Z,95.26
2023-08-01T22:51:40.451Z,95.50
2023-08-01T22:54:10.163Z,95.28
2023-08-01T22:56:37.906Z,95.57
2023-08-01T22:59:05.559Z,95.38
2023-08-01T23:01:33.423Z,95.36
2023-08-01T23:04:01.703Z,95.14
2023-08-01T23:11:44.856Z,95.16
2023-08-01T23:15:08.714Z,95.00
2023-08-01T23:18:01.543Z,94.78
2023-08-01T23:20:29.421Z,95.71
2023-08-01T23:22:57.004Z,95.63
2023-08-01T23:25:24.605Z,95.88
2023-08-01T23:27:54.954Z,95.52
2023-08-01T23:30:22.586Z,95.80
2023-08-01T23:32:53.837Z,96.24
2023-08-01T23:35:21.706Z,96.11
2023-08-01T23:37:50.925Z,96.44
2023-08-01T23:40:19.742Z,96.56
2023-08-01T23:42:48.184Z,96.91
2023-08-01T23:45:15.806Z,96.76
2023-08-01T23:47:43.471Z,97.08
2023-08-01T23:50:11.065Z,96.73
2023-08-01T23:52:38.617Z,96.76
2023-08-01T23:55:06.543Z,96.76
2023-08-01T23:57:34.054Z,97.17
